createdAt,value
2019-04-25T00:01:33.436Z,16.80
2019-04-25T00:04:02.856Z,16.80
2019-04-25T00:06:32.644Z,16.80
2019-04-25T00:09:02.132Z,16.70
2019-04-25T00:11:31.452Z,16.70
2019-04-25T00:14:01.583Z,16.60
2019-04-25T00:16:32.728Z,16.60
2019-04-25T00:19:02.039Z,16.50
2019-04-25T00:21:44.451Z,16.50
2019-04-25T00:24:23.798Z,16.50
2019-04-25T00:26:53.558Z,16.50
2019-04-25T00:29:22.985Z,16.50
2019-04-25T00:31:53.280Z,16.40
2019-04-25T00:34:23.410Z,16.40
2019-04-25T00:36:53.134Z,16.30
2019-04-25T00:39:22.603Z,16.30
2019-04-25T00:41:52.112Z,16.20
2019-04-25T00:44:21.997Z,16.20
2019-04-25T00:46:56.530Z,16.20
2019-04-25T00:49:23.640Z,16.20
2019-04-25T00:51:53.291Z,16.20
2019-04-25T00:54:22.777Z,16.10
2019-04-25T00:56:52.757Z,16.10
2019-04-25T00:59:36.347Z,16.10
2019-04-25T01:02:31.310Z,16.00
2019-04-25T01:05:02.369Z,16.00
2019-04-25T01:07:32.348Z,16.00
2019-04-25T01:10:03.907Z,15.90
2019-04-25T01:12:33.203Z,15.90
2019-04-25T01:15:03.539Z,16.00
2019-04-25T01:17:33.002Z,15.90
2019-04-25T01:20:04.084Z,16.00
2019-04-25T01:22:34.332Z,15.90
2019-04-25T01:25:04.542Z,15.90
2019-04-25T01:27:33.845Z,15.90
2019-04-25T01:30:04.010Z,15.80
2019-04-25T01:32:37.292Z,15.80
2019-04-25T01:35:26.480Z,15.70
2019-04-25T01:38:14.739Z,15.70
2019-04-25T01:41:12.178Z,15.70
2019-04-25T01:44:06.427Z,15.70
2019-04-25T01:46:37.421Z,15.70
2019-04-25T01:49:06.750Z,15.60
2019-04-25T01:51:36.038Z,15.60
2019-04-25T01:54:05.468Z,15.60
2019-04-25T01:56:34.847Z,15.60
2019-04-25T01:59:04.514Z,15.50
2019-04-25T02:01:35.586Z,15.60
2019-04-25T02:04:04.966Z,15.60
2019-04-25T02:06:34.378Z,15.50
2019-04-25T02:09:05.399Z,15.50
2019-04-25T02:11:54.692Z,15.50
2019-04-25T02:14:24.865Z,15.40
2019-04-25T02:16:55.968Z,15.40
2019-04-25T02:19:25.558Z,15.50
2019-04-25T02:21:55.606Z,15.50
2019-04-25T02:24:25.857Z,15.50
2019-04-25T02:26:56.028Z,15.50
2019-04-25T02:29:25.806Z,15.40
2019-04-25T02:31:59.231Z,15.40
2019-04-25T02:34:26.159Z,15.40
2019-04-25T02:36:59.446Z,15.30
2019-04-25T02:39:27.265Z,15.30
2019-04-25T02:42:00.097Z,15.30
2019-04-25T02:44:27.710Z,15.30
2019-04-25T02:47:15.950Z,15.20
2019-04-25T02:50:15.126Z,15.20
2019-04-25T02:52:55.575Z,15.20
2019-04-25T02:55:34.236Z,15.20
2019-04-25T02:57:56.511Z,15.10
2019-04-25T03:00:45.991Z,15.10
2019-04-25T03:03:00.880Z,15.00
2019-04-25T03:05:30.421Z,15.00
2019-04-25T03:08:01.266Z,14.90
2019-04-25T03:10:31.032Z,14.90
2019-04-25T03:13:01.875Z,14.80
2019-04-25T03:15:31.477Z,14.80
2019-04-25T03:18:05.684Z,14.80
2019-04-25T03:20:40.887Z,14.70
2019-04-25T03:23:20.891Z,14.70
2019-04-25T03:25:50.261Z,14.70
2019-04-25T03:28:19.697Z,14.60
2019-04-25T03:30:49.032Z,14.60
2019-04-25T03:33:19.907Z,14.50
2019-04-25T03:35:49.501Z,14.50
2019-04-25T03:38:18.865Z,14.50
2019-04-25T03:40:48.257Z,14.40
2019-04-25T03:43:17.568Z,14.40
2019-04-25T03:45:46.899Z,14.30
2019-04-25T03:48:16.197Z,14.20
2019-04-25T03:50:45.517Z,14.10
2019-04-25T03:53:14.810Z,14.00
2019-04-25T03:55:44.450Z,13.80
2019-04-25T03:58:14.666Z,13.80
2019-04-25T04:00:44.798Z,13.70
2019-04-25T04:03:15.128Z,13.60
2019-04-25T04:05:44.729Z,13.50
2019-04-25T04:08:15.701Z,13.40
2019-04-25T04:10:45.188Z,13.40
2019-04-25T04:13:15.744Z,13.30
2019-04-25T04:15:45.193Z,13.20
2019-04-25T04:18:26.828Z,13.10
2019-04-25T04:21:17.423Z,13.10
2019-04-25T04:23:58.277Z,13.00
2019-04-25T04:26:27.709Z,12.90
2019-04-25T04:28:56.997Z,12.90
2019-04-25T04:31:26.353Z,12.80
2019-04-25T04:33:55.661Z,12.80
2019-04-25T04:36:25.085Z,12.70
2019-04-25T04:38:54.461Z,12.60
2019-04-25T04:41:24.015Z,12.60
2019-04-25T04:43:54.119Z,12.60
2019-04-25T04:46:24.099Z,12.50
2019-04-25T04:48:55.266Z,12.50
2019-04-25T04:51:24.829Z,12.50
2019-04-25T04:53:54.177Z,12.50
2019-04-25T04:56:23.884Z,12.40
2019-04-25T04:58:54.590Z,12.40
2019-04-25T05:01:25.495Z,12.40
2019-04-25T05:04:05.158Z,12.40
2019-04-25T05:06:49.412Z,12.40
2019-04-25T05:09:23.806Z,12.30
2019-04-25T05:11:54.008Z,12.30
2019-04-25T05:14:23.874Z,12.30
2019-04-25T05:16:54.559Z,12.30
2019-04-25T05:19:23.986Z,12.30
2019-04-25T05:21:53.697Z,12.30
2019-04-25T05:24:26.083Z,12.40
2019-04-25T05:26:54.163Z,12.40
2019-04-25T05:29:26.492Z,12.40
2019-04-25T05:31:54.609Z,12.50
2019-04-25T05:34:25.611Z,12.50
2019-04-25T05:36:54.977Z,12.50
2019-04-25T05:39:25.154Z,12.60
2019-04-25T05:42:04.273Z,12.60
2019-04-25T05:44:34.673Z,12.60
2019-04-25T05:47:04.218Z,12.70
2019-04-25T05:49:34.225Z,12.70
2019-04-25T05:52:04.115Z,12.80
2019-04-25T05:54:34.389Z,12.80
2019-04-25T05:57:03.909Z,12.90
2019-04-25T05:59:33.823Z,13.00
2019-04-25T06:02:03.941Z,13.00
2019-04-25T06:04:33.702Z,13.10
2019-04-25T06:07:03.334Z,13.20
2019-04-25T06:09:54.708Z,13.30
2019-04-25T06:12:33.568Z,13.30
2019-04-25T06:15:03.472Z,13.40
2019-04-25T06:17:58.013Z,13.50
2019-04-25T06:20:31.783Z,13.60
2019-04-25T06:23:13.125Z,13.80
2019-04-25T06:25:43.957Z,13.80
2019-04-25T06:28:15.393Z,14.00
2019-04-25T06:30:44.718Z,14.10
2019-04-25T06:33:14.122Z,14.20
2019-04-25T06:35:44.165Z,14.40
2019-04-25T06:38:13.673Z,14.50
2019-04-25T06:40:43.732Z,14.60
2019-04-25T06:43:13.524Z,14.80
2019-04-25T06:46:03.843Z,15.00
2019-04-25T06:48:37.346Z,15.10
2019-04-25T06:51:06.748Z,15.40
2019-04-25T06:53:36.077Z,15.50
2019-04-25T06:56:05.918Z,15.70
2019-04-25T06:58:37.248Z,15.90
2019-04-25T07:01:06.577Z,16.10
2019-04-25T07:03:35.918Z,16.30
2019-04-25T07:06:05.659Z,16.40
2019-04-25T07:08:35.477Z,16.60
2019-04-25T07:11:04.826Z,16.70
2019-04-25T07:13:38.445Z,16.90
2019-04-25T07:16:05.291Z,17.00
2019-04-25T07:18:37.049Z,17.20
2019-04-25T07:21:06.681Z,17.30
2019-04-25T07:23:36.021Z,17.50
2019-04-25T07:26:24.151Z,17.70
2019-04-25T07:29:13.396Z,17.90
2019-04-25T07:31:53.963Z,18.10
2019-04-25T07:34:25.299Z,18.20
2019-04-25T07:36:55.689Z,18.40
2019-04-25T07:39:25.627Z,18.50
2019-04-25T07:41:55.208Z,18.70
2019-04-25T07:44:36.692Z,18.90
2019-04-25T07:46:55.613Z,19.10
2019-04-25T07:49:26.636Z,19.30
2019-04-25T07:51:56.244Z,19.40
2019-04-25T07:54:27.518Z,19.60
2019-04-25T07:56:56.699Z,19.80
2019-04-25T07:59:27.359Z,20.00
2019-04-25T08:01:57.121Z,20.10
2019-04-25T08:04:27.556Z,20.30
2019-04-25T08:06:57.147Z,20.40
2019-04-25T08:09:27.377Z,20.50
2019-04-25T08:11:57.776Z,20.80
2019-04-25T08:14:46.141Z,20.90
2019-04-25T08:17:16.988Z,21.00
2019-04-25T08:19:46.755Z,21.20
2019-04-25T08:22:16.313Z,21.40
2019-04-25T08:24:45.675Z,21.60
2019-04-25T08:27:14.973Z,21.70
2019-04-25T08:29:45.493Z,21.90
2019-04-25T08:32:15.392Z,22.10
2019-04-25T08:34:45.253Z,22.20
2019-04-25T08:37:19.059Z,22.50
2019-04-25T08:39:45.680Z,22.70
2019-04-25T08:42:15.093Z,22.80
2019-04-25T08:44:44.951Z,23.00
2019-04-25T08:47:14.695Z,23.10
2019-04-25T08:49:49.562Z,23.30
2019-04-25T08:52:19.045Z,23.30
2019-04-25T08:54:57.470Z,23.40
2019-04-25T08:57:45.060Z,23.50
2019-04-25T09:00:26.513Z,23.60
2019-04-25T09:02:59.697Z,23.70
2019-04-25T09:05:45.859Z,23.80
2019-04-25T09:08:14.281Z,24.00
2019-04-25T09:10:44.807Z,24.20
2019-04-25T09:13:14.359Z,24.40
2019-04-25T09:15:45.445Z,24.60
2019-04-25T09:18:14.845Z,24.80
2019-04-25T09:20:46.674Z,24.90
2019-04-25T09:23:16.301Z,25.00
2019-04-25T09:25:46.203Z,25.10
2019-04-25T09:28:15.666Z,25.10
2019-04-25T09:30:45.851Z,25.20
2019-04-25T09:33:15.554Z,25.40
2019-04-25T09:35:45.971Z,25.40
2019-04-25T09:38:15.616Z,25.40
2019-04-25T09:40:45.670Z,25.60
2019-04-25T09:43:16.123Z,25.60
2019-04-25T09:45:54.993Z,25.60
2019-04-25T09:48:36.331Z,25.80
2019-04-25T09:51:28.293Z,26.00
2019-04-25T09:54:15.225Z,26.00
2019-04-25T09:56:47.252Z,26.20
2019-04-25T09:59:27.300Z,26.40
2019-04-25T10:01:51.314Z,26.60
2019-04-25T10:04:22.977Z,26.60
2019-04-25T10:06:53.459Z,26.70
2019-04-25T10:09:23.797Z,26.70
2019-04-25T10:11:54.713Z,26.60
2019-04-25T10:14:55.120Z,26.30
2019-04-25T10:17:24.532Z,26.40
2019-04-25T10:19:53.945Z,26.50
2019-04-25T10:22:23.744Z,26.70
2019-04-25T10:25:00.252Z,26.90
2019-04-25T10:27:24.389Z,26.90
2019-04-25T10:29:57.073Z,27.00
2019-04-25T10:32:24.793Z,27.10
2019-04-25T10:34:54.255Z,27.00
2019-04-25T10:37:23.608Z,27.10
2019-04-25T10:39:55.265Z,27.40
2019-04-25T10:42:24.166Z,27.80
2019-04-25T10:44:56.275Z,28.00
2019-04-25T10:47:24.734Z,28.10
2019-04-25T10:49:55.464Z,28.30
2019-04-25T10:52:24.927Z,28.20
2019-04-25T10:54:54.378Z,28.40
2019-04-25T10:57:24.910Z,28.40
2019-04-25T11:00:05.961Z,28.40
2019-04-25T11:02:26.089Z,28.30
2019-04-25T11:05:00.973Z,28.20
2019-04-25T11:07:30.389Z,28.30
2019-04-25T11:09:59.698Z,28.30
2019-04-25T11:12:29.085Z,28.30
2019-04-25T11:14:58.420Z,28.40
2019-04-25T11:17:27.756Z,28.40
2019-04-25T11:19:57.147Z,28.40
2019-04-25T11:22:26.557Z,28.60
2019-04-25T11:24:55.913Z,28.90
2019-04-25T11:27:25.657Z,29.10
2019-04-25T11:30:08.574Z,29.10
2019-04-25T11:32:28.131Z,29.30
2019-04-25T11:34:57.435Z,29.50
2019-04-25T11:37:29.347Z,29.50
2019-04-25T11:40:04.725Z,29.60
2019-04-25T11:42:34.104Z,29.70
2019-04-25T11:45:06.025Z,29.80
2019-04-25T11:47:35.761Z,29.90
2019-04-25T11:50:06.013Z,29.80
2019-04-25T11:52:35.346Z,30.00
2019-04-25T11:55:04.893Z,30.20
2019-04-25T11:57:34.319Z,30.40
2019-04-25T12:00:04.219Z,30.60
2019-04-25T12:02:34.365Z,30.70
2019-04-25T12:05:04.348Z,30.40
2019-04-25T12:07:34.250Z,30.50
2019-04-25T12:10:05.788Z,30.50
2019-04-25T12:12:37.168Z,30.70
2019-04-25T12:15:06.437Z,30.90
2019-04-25T12:17:35.814Z,30.70
2019-04-25T12:20:05.863Z,30.60
2019-04-25T12:22:35.219Z,30.70
2019-04-25T12:25:04.812Z,30.90
2019-04-25T12:27:34.251Z,31.00
2019-04-25T12:30:05.431Z,31.10
2019-04-25T12:32:35.276Z,30.90
2019-04-25T12:35:06.167Z,30.90
2019-04-25T12:37:35.791Z,30.90
2019-04-25T12:40:08.877Z,30.80
2019-04-25T12:42:38.194Z,30.90
2019-04-25T12:45:26.662Z,31.00
2019-04-25T12:47:57.999Z,31.20
2019-04-25T12:50:27.191Z,31.30
2019-04-25T12:52:56.571Z,31.20
2019-04-25T12:55:25.925Z,31.10
2019-04-25T12:57:56.485Z,31.20
2019-04-25T13:00:26.813Z,31.20
2019-04-25T13:02:56.630Z,31.30
2019-04-25T13:05:26.233Z,31.20
2019-04-25T13:07:58.390Z,31.30
2019-04-25T13:10:26.695Z,31.30
2019-04-25T13:12:56.983Z,31.20
2019-04-25T13:15:27.064Z,31.30
2019-04-25T13:17:57.009Z,31.30
2019-04-25T13:20:26.394Z,31.30
2019-04-25T13:22:55.870Z,31.10
2019-04-25T13:25:25.509Z,31.10
2019-04-25T13:28:19.969Z,31.00
2019-04-25T13:31:12.412Z,31.00
2019-04-25T13:33:58.865Z,31.10
2019-04-25T13:36:28.327Z,31.10
2019-04-25T13:38:57.655Z,31.10
2019-04-25T13:41:26.986Z,31.10
2019-04-25T13:43:56.679Z,31.10
2019-04-25T13:46:27.715Z,31.00
2019-04-25T13:48:57.213Z,30.90
2019-04-25T13:51:26.915Z,30.90
2019-04-25T13:53:56.337Z,30.90
2019-04-25T13:56:26.533Z,30.80
2019-04-25T13:58:56.902Z,30.60
2019-04-25T14:01:26.267Z,30.40
2019-04-25T14:03:55.607Z,30.20
2019-04-25T14:06:24.942Z,30.20
2019-04-25T14:08:54.264Z,30.00
2019-04-25T14:11:24.132Z,29.80
2019-04-25T14:13:53.497Z,29.70
2019-04-25T14:16:43.365Z,29.60
2019-04-25T14:19:31.363Z,29.50
2019-04-25T14:22:04.301Z,29.50
2019-04-25T14:24:35.728Z,29.60
2019-04-25T14:27:05.289Z,29.60
2019-04-25T14:29:34.827Z,29.50
2019-04-25T14:32:06.337Z,29.50
2019-04-25T14:34:36.684Z,29.40
2019-04-25T14:37:06.077Z,29.50
2019-04-25T14:39:36.018Z,29.60
2019-04-25T14:42:05.728Z,29.60
2019-04-25T14:44:35.143Z,29.60
2019-04-25T14:47:04.542Z,29.50
2019-04-25T14:49:33.912Z,29.40
2019-04-25T14:52:03.509Z,29.40
2019-04-25T14:54:51.295Z,29.30
2019-04-25T14:57:24.318Z,29.30
2019-04-25T14:59:53.881Z,29.20
2019-04-25T15:02:25.631Z,29.10
2019-04-25T15:04:55.265Z,29.10
2019-04-25T15:07:24.677Z,29.00
2019-04-25T15:09:54.053Z,29.00
2019-04-25T15:12:23.683Z,28.80
2019-04-25T15:14:53.937Z,28.60
2019-04-25T15:17:23.751Z,28.40
2019-04-25T15:19:53.331Z,28.30
2019-04-25T15:22:23.187Z,28.20
2019-04-25T15:24:53.861Z,28.20
2019-04-25T15:27:24.979Z,28.10
2019-04-25T15:29:54.245Z,28.00
2019-04-25T15:32:27.513Z,27.90
2019-04-25T15:34:57.886Z,27.90
2019-04-25T15:37:33.019Z,27.80
2019-04-25T15:40:10.323Z,27.70
2019-04-25T15:43:07.647Z,27.70
2019-04-25T15:45:55.947Z,27.70
2019-04-25T15:48:26.392Z,27.50
2019-04-25T15:50:56.378Z,27.40
2019-04-25T15:53:26.009Z,27.30
2019-04-25T15:55:55.407Z,27.20
2019-04-25T15:58:25.301Z,27.10
2019-04-25T16:00:55.742Z,27.10
2019-04-25T16:03:25.166Z,27.00
2019-04-25T16:05:54.521Z,26.90
2019-04-25T16:08:23.826Z,26.80
2019-04-25T16:10:53.183Z,26.70
2019-04-25T16:13:22.611Z,26.60
2019-04-25T16:15:51.957Z,26.40
2019-04-25T16:18:21.295Z,26.30
2019-04-25T16:20:50.689Z,26.30
2019-04-25T16:23:20.117Z,26.20
2019-04-25T16:25:49.448Z,26.10
2019-04-25T16:28:18.855Z,26.00
2019-04-25T16:30:48.335Z,25.90
2019-04-25T16:33:17.779Z,25.80
2019-04-25T16:35:47.211Z,25.80
2019-04-25T16:38:16.908Z,25.70
2019-04-25T16:40:46.354Z,25.60
2019-04-25T16:43:19.663Z,25.50
2019-04-25T16:45:49.170Z,25.50
2019-04-25T16:48:18.546Z,25.40
2019-04-25T16:50:47.899Z,25.30
2019-04-25T16:53:17.347Z,25.30
2019-04-25T16:55:46.734Z,25.20
2019-04-25T16:58:16.156Z,25.10
2019-04-25T17:00:53.653Z,25.00
2019-04-25T17:03:24.129Z,24.90
2019-04-25T17:05:53.491Z,24.90
2019-04-25T17:08:23.348Z,24.80
2019-04-25T17:10:52.758Z,24.70
2019-04-25T17:13:22.257Z,24.60
2019-04-25T17:16:13.795Z,24.50
2019-04-25T17:18:56.223Z,24.40
2019-04-25T17:21:25.637Z,24.30
2019-04-25T17:23:55.113Z,24.20
2019-04-25T17:26:25.173Z,24.10
2019-04-25T17:28:56.231Z,24.00
2019-04-25T17:31:32.649Z,23.90
2019-04-25T17:34:09.278Z,23.80
2019-04-25T17:36:50.990Z,23.80
2019-04-25T17:39:33.436Z,23.70
2019-04-25T17:42:06.719Z,23.60
2019-04-25T17:44:36.371Z,23.50
2019-04-25T17:47:06.759Z,23.40
2019-04-25T17:49:36.823Z,23.40
2019-04-25T17:52:06.333Z,23.30
2019-04-25T17:54:36.743Z,23.20
2019-04-25T17:57:06.800Z,23.10
2019-04-25T17:59:36.894Z,23.10
2019-04-25T18:02:06.317Z,23.00
2019-04-25T18:04:35.713Z,22.90
2019-04-25T18:07:06.613Z,22.80
2019-04-25T18:09:36.793Z,22.80
2019-04-25T18:12:06.419Z,22.70
2019-04-25T18:14:36.382Z,22.70
2019-04-25T18:17:06.173Z,22.60
2019-04-25T18:19:52.503Z,22.60
2019-04-25T18:22:59.090Z,22.50
2019-04-25T18:25:50.873Z,22.50
2019-04-25T18:28:25.355Z,22.40
2019-04-25T18:30:54.979Z,22.30
2019-04-25T18:33:28.721Z,22.30
2019-04-25T18:36:24.011Z,22.20
2019-04-25T18:39:17.978Z,22.20
2019-04-25T18:41:58.543Z,22.10
2019-04-25T18:44:27.965Z,22.10
2019-04-25T18:46:57.395Z,22.00
2019-04-25T18:49:26.809Z,21.90
2019-04-25T18:51:58.268Z,21.90
2019-04-25T18:54:45.198Z,21.90
2019-04-25T18:57:52.014Z,21.80
2019-04-25T19:00:43.687Z,21.70
2019-04-25T19:03:38.291Z,21.70
2019-04-25T19:06:11.346Z,21.60
2019-04-25T19:08:40.879Z,21.60
2019-04-25T19:11:10.423Z,21.50
2019-04-25T19:13:39.849Z,21.50
2019-04-25T19:16:09.292Z,21.40
2019-04-25T19:18:38.836Z,21.30
2019-04-25T19:21:09.617Z,21.20
2019-04-25T19:23:39.394Z,21.20
2019-04-25T19:26:09.827Z,21.20
2019-04-25T19:28:40.079Z,21.20
2019-04-25T19:31:10.356Z,21.10
2019-04-25T19:33:40.658Z,21.10
2019-04-25T19:36:10.733Z,21.10
2019-04-25T19:38:40.662Z,21.00
2019-04-25T19:41:19.274Z,21.00
2019-04-25T19:43:55.115Z,21.00
2019-04-25T19:46:41.873Z,21.00
2019-04-25T19:49:12.524Z,21.00
2019-04-25T19:51:42.952Z,21.00
2019-04-25T19:54:12.511Z,20.90
2019-04-25T19:56:42.701Z,20.90
2019-04-25T19:59:13.080Z,20.90
2019-04-25T20:01:42.612Z,21.00
2019-04-25T20:04:31.089Z,20.90
2019-04-25T20:07:15.542Z,20.90
2019-04-25T20:10:12.738Z,20.80
2019-04-25T20:12:50.315Z,20.80
2019-04-25T20:15:18.265Z,20.70
2019-04-25T20:17:47.738Z,20.70
2019-04-25T20:20:17.633Z,20.60
2019-04-25T20:22:48.079Z,20.60
2019-04-25T20:25:17.582Z,20.50
2019-04-25T20:27:47.023Z,20.50
2019-04-25T20:30:16.496Z,20.40
2019-04-25T20:32:47.218Z,20.40
2019-04-25T20:35:16.750Z,20.30
2019-04-25T20:37:47.348Z,20.30
2019-04-25T20:40:17.042Z,20.30
2019-04-25T20:42:47.065Z,20.20
2019-04-25T20:45:17.354Z,20.20
2019-04-25T20:47:47.855Z,20.10
2019-04-25T20:50:17.483Z,20.10
2019-04-25T20:52:47.419Z,20.10
2019-04-25T20:55:17.286Z,20.10
2019-04-25T20:57:47.074Z,20.00
2019-04-25T21:00:39.964Z,20.00
2019-04-25T21:03:09.882Z,20.00
2019-04-25T21:05:39.522Z,20.00
2019-04-25T21:08:09.009Z,20.00
2019-04-25T21:10:38.475Z,20.10
2019-04-25T21:13:11.019Z,20.10
2019-04-25T21:15:58.989Z,20.10
2019-04-25T21:18:37.330Z,20.20
2019-04-25T21:21:06.711Z,20.20
2019-04-25T21:23:36.089Z,20.20
2019-04-25T21:26:05.505Z,20.20
2019-04-25T21:28:34.891Z,20.20
2019-04-25T21:31:04.523Z,20.20
2019-04-25T21:33:33.903Z,20.20
2019-04-25T21:36:03.628Z,20.20
2019-04-25T21:38:33.319Z,20.10
2019-04-25T21:41:20.289Z,20.10
2019-04-25T21:43:54.164Z,20.10
2019-04-25T21:46:23.953Z,20.10
2019-04-25T21:48:54.583Z,20.10
2019-04-25T21:51:33.275Z,20.10
2019-04-25T21:54:03.697Z,20.00
2019-04-25T21:56:33.513Z,20.00
2019-04-25T21:59:04.008Z,20.00
2019-04-25T22:01:37.231Z,20.00
2019-04-25T22:04:06.789Z,20.00
2019-04-25T22:06:36.629Z,20.00
2019-04-25T22:09:10.305Z,20.10
2019-04-25T22:11:39.653Z,20.10
2019-04-25T22:14:10.485Z,20.20
2019-04-25T22:16:40.162Z,20.20
2019-04-25T22:19:11.121Z,20.20
2019-04-25T22:21:41.493Z,20.30
2019-04-25T22:24:14.353Z,20.30
2019-04-25T22:26:41.967Z,20.40
2019-04-25T22:29:11.594Z,20.40
2019-04-25T22:31:51.430Z,20.40
2019-04-25T22:34:32.637Z,20.40
2019-04-25T22:37:02.910Z,20.40
2019-04-25T22:39:32.385Z,20.40
2019-04-25T22:42:03.915Z,20.50
2019-04-25T22:44:33.537Z,20.50
2019-04-25T22:47:04.241Z,20.50
2019-04-25T22:49:33.857Z,20.60
2019-04-25T22:52:07.040Z,20.60
2019-04-25T22:54:36.507Z,20.60
2019-04-25T22:57:06.393Z,20.50
2019-04-25T22:59:36.175Z,20.50
2019-04-25T23:02:39.901Z,20.50
2019-04-25T23:05:26.394Z,20.40
2019-04-25T23:07:56.110Z,20.40
2019-04-25T23:10:25.820Z,20.30
2019-04-25T23:12:55.279Z,20.30
2019-04-25T23:15:24.701Z,20.30
2019-04-25T23:17:54.539Z,20.20
2019-04-25T23:20:23.937Z,20.20
2019-04-25T23:22:53.393Z,20.20
2019-04-25T23:25:28.005Z,20.20
2019-04-25T23:28:11.889Z,20.20
2019-04-25T23:30:59.531Z,20.20
2019-04-25T23:33:29.019Z,20.10
2019-04-25T23:35:58.698Z,20.10
2019-04-25T23:38:28.098Z,20.00
2019-04-25T23:40:57.529Z,20.10
2019-04-25T23:43:27.162Z,20.10
2019-04-25T23:45:56.561Z,20.10
2019-04-25T23:48:26.304Z,20.00
2019-04-25T23:50:55.729Z,20.00
2019-04-25T23:53:25.104Z,20.00
2019-04-25T23:55:54.516Z,20.10
2019-04-25T23:58:23.934Z,20.10
